EWG5LB EDDH-LEBL
Flight info
| Callsign | EWG5LB |
|---|---|
| Flight time | 2h 14m |
| Altitude | 23000 |
| Route | IDEKO8C IDEKO N850 PIROT/N0458F330 N850 XAROL/N0461F320 DCT BOMBI DCT GIGET DCT ABUKA DCT KRH DCT NATOR/N0461F330 DCT LUTIX DCT BENOT DCT NEMOS DCT GEVEA/N0449F270 DCT INCUS DCT BALSI DCT RETNO DCT TUPOX DCT MTG DCT DIVKO DCT NILDU DCT BISBA |
| Aircraft | A320/M-SDE3FGHIRWY/LB1 |
Departure
| Time | 2026-05-07 07:59 |
|---|---|
| Airport | Hamburg Helmut Schmidt Airport (EDDH) |
Arrival
| Time | 2026-05-07 10:14 |
|---|---|
| Airport | Josep Tarradellas Barcelona-El Prat Airport (LEBL) |
| Time | Latitude | Longitude | Altitude | Speed | Heading |
|---|---|---|---|---|---|
| 2026-05-07 07:48 | 53.63168 | 10.00368 | 49 ft | 0 kts | 86° |
| 2026-05-07 07:52 | 53.63168 | 10.00366 | 48 ft | 2 kts | 86° |
| 2026-05-07 07:52 | 53.63168 | 10.00323 | 48 ft | 4 kts | 98° |
| 2026-05-07 07:53 | 53.63174 | 10.00279 | 45 ft | 4 kts | 113° |
| 2026-05-07 07:53 | 53.63187 | 10.00240 | 44 ft | 4 kts | 130° |
| 2026-05-07 07:53 | 53.63206 | 10.00209 | 46 ft | 4 kts | 147° |
| 2026-05-07 07:53 | 53.63229 | 10.00188 | 47 ft | 4 kts | 160° |
| 2026-05-07 07:54 | 53.63255 | 10.00176 | 44 ft | 4 kts | 171° |
| 2026-05-07 07:54 | 53.63282 | 10.00171 | 47 ft | 4 kts | 177° |
| 2026-05-07 07:54 | 53.63299 | 10.00170 | 47 ft | 0 kts | 176° |
| 2026-05-07 07:56 | 53.63295 | 10.00170 | 48 ft | 2 kts | 176° |
| 2026-05-07 07:56 | 53.63280 | 10.00172 | 47 ft | 2 kts | 176° |
| 2026-05-07 07:56 | 53.63263 | 10.00174 | 46 ft | 3 kts | 176° |
| 2026-05-07 07:57 | 53.63210 | 10.00181 | 48 ft | 12 kts | 176° |
| 2026-05-07 07:57 | 53.63100 | 10.00192 | 47 ft | 18 kts | 182° |
| 2026-05-07 07:57 | 53.62995 | 10.00104 | 46 ft | 16 kts | 213° |
| 2026-05-07 07:57 | 53.62918 | 9.99986 | 48 ft | 14 kts | 241° |
| 2026-05-07 07:58 | 53.62874 | 9.99839 | 44 ft | 14 kts | 243° |
| 2026-05-07 07:58 | 53.62862 | 9.99748 | 45 ft | 7 kts | 305° |
| 2026-05-07 07:58 | 53.63018 | 9.99620 | 45 ft | 57 kts | 335° |
| 2026-05-07 07:58 | 53.63570 | 9.99153 | 47 ft | 118 kts | 332° |
| 2026-05-07 07:59 | 53.64451 | 9.98379 | 60 ft | 165 kts | 335° |
| 2026-05-07 07:59 | 53.65498 | 9.97490 | 625 ft | 167 kts | 338° |
| 2026-05-07 07:59 | 53.66534 | 9.96604 | 1305 ft | 169 kts | 337° |
| 2026-05-07 07:59 | 53.67637 | 9.95671 | 1676 ft | 188 kts | 336° |
| 2026-05-07 08:00 | 53.68873 | 9.94621 | 1943 ft | 210 kts | 337° |
| 2026-05-07 08:00 | 53.70210 | 9.93469 | 2419 ft | 220 kts | 336° |
| 2026-05-07 08:00 | 53.71349 | 9.91730 | 2971 ft | 234 kts | 300° |
| 2026-05-07 08:00 | 53.71678 | 9.88950 | 3398 ft | 256 kts | 264° |
| 2026-05-07 08:01 | 53.71290 | 9.85935 | 3886 ft | 273 kts | 251° |
| 2026-05-07 08:01 | 53.70612 | 9.82874 | 4603 ft | 281 kts | 247° |
| 2026-05-07 08:01 | 53.69860 | 9.79811 | 5457 ft | 284 kts | 247° |
| 2026-05-07 08:01 | 53.69113 | 9.76708 | 6323 ft | 286 kts | 249° |
| 2026-05-07 08:02 | 53.68399 | 9.73560 | 7158 ft | 288 kts | 251° |
| 2026-05-07 08:02 | 53.67720 | 9.70371 | 7969 ft | 289 kts | 251° |
| 2026-05-07 08:02 | 53.67067 | 9.67157 | 8808 ft | 291 kts | 252° |
| 2026-05-07 08:02 | 53.66424 | 9.63956 | 9599 ft | 293 kts | 250° |
| 2026-05-07 08:03 | 53.65430 | 9.60952 | 10375 ft | 296 kts | 231° |
| 2026-05-07 08:03 | 53.63889 | 9.58642 | 11050 ft | 302 kts | 212° |
| 2026-05-07 08:03 | 53.61880 | 9.57254 | 11236 ft | 326 kts | 191° |
| 2026-05-07 08:03 | 53.59556 | 9.56754 | 11375 ft | 348 kts | 186° |
| 2026-05-07 08:04 | 53.57075 | 9.56286 | 11506 ft | 369 kts | 186° |
| 2026-05-07 08:04 | 53.54475 | 9.55794 | 11831 ft | 381 kts | 186° |
| 2026-05-07 08:04 | 53.51817 | 9.55282 | 12390 ft | 387 kts | 187° |
| 2026-05-07 08:04 | 53.49170 | 9.54764 | 13012 ft | 390 kts | 187° |
| 2026-05-07 08:05 | 53.46469 | 9.54230 | 13652 ft | 392 kts | 187° |
| 2026-05-07 08:05 | 53.43752 | 9.53697 | 14225 ft | 395 kts | 187° |
| 2026-05-07 08:05 | 53.41016 | 9.53160 | 14765 ft | 397 kts | 187° |
| 2026-05-07 08:05 | 53.38267 | 9.52620 | 15310 ft | 399 kts | 188° |
| 2026-05-07 08:06 | 53.35498 | 9.52074 | 15824 ft | 402 kts | 187° |
| 2026-05-07 08:06 | 53.32710 | 9.51523 | 16338 ft | 404 kts | 187° |
| 2026-05-07 08:06 | 53.29905 | 9.50973 | 16860 ft | 407 kts | 187° |
| 2026-05-07 08:06 | 53.27127 | 9.50432 | 17369 ft | 409 kts | 187° |
| 2026-05-07 08:07 | 53.24291 | 9.49878 | 17859 ft | 411 kts | 188° |
| 2026-05-07 08:07 | 53.21439 | 9.49323 | 18353 ft | 414 kts | 188° |
| 2026-05-07 08:07 | 53.18575 | 9.48766 | 18782 ft | 416 kts | 188° |
| 2026-05-07 08:07 | 53.15698 | 9.48205 | 19211 ft | 418 kts | 187° |
| 2026-05-07 08:08 | 53.12804 | 9.47644 | 19646 ft | 419 kts | 188° |
| 2026-05-07 08:08 | 53.09896 | 9.47082 | 20079 ft | 421 kts | 188° |
| 2026-05-07 08:08 | 53.06990 | 9.46518 | 20518 ft | 422 kts | 188° |
| 2026-05-07 08:08 | 53.04102 | 9.45959 | 20909 ft | 424 kts | 188° |
| 2026-05-07 08:09 | 53.01163 | 9.45394 | 21289 ft | 426 kts | 188° |
| 2026-05-07 08:09 | 52.98209 | 9.44820 | 21674 ft | 428 kts | 188° |
| 2026-05-07 08:09 | 52.95245 | 9.44208 | 22050 ft | 430 kts | 188° |
| 2026-05-07 08:09 | 52.92272 | 9.43561 | 22434 ft | 432 kts | 188° |
| 2026-05-07 08:10 | 52.89290 | 9.42903 | 22786 ft | 434 kts | 188° |
| 2026-05-07 08:10 | 52.86287 | 9.42247 | 23121 ft | 436 kts | 188° |
| 2026-05-07 08:10 | 52.83268 | 9.41600 | 23476 ft | 439 kts | 188° |
| 2026-05-07 08:10 | 52.80237 | 9.40954 | 23790 ft | 440 kts | 188° |
| 2026-05-07 08:11 | 52.77189 | 9.40306 | 24084 ft | 442 kts | 188° |
| 2026-05-07 08:11 | 52.74174 | 9.39666 | 24356 ft | 444 kts | 188° |
| 2026-05-07 08:11 | 52.71101 | 9.39014 | 24625 ft | 446 kts | 188° |
| 2026-05-07 08:11 | 52.68018 | 9.38359 | 24885 ft | 447 kts | 188° |
| 2026-05-07 08:12 | 52.64924 | 9.37701 | 25165 ft | 449 kts | 188° |
| 2026-05-07 08:12 | 52.61818 | 9.37043 | 25418 ft | 451 kts | 188° |
| 2026-05-07 08:12 | 52.58701 | 9.36315 | 25657 ft | 453 kts | 189° |
| 2026-05-07 08:12 | 52.55589 | 9.35510 | 25915 ft | 454 kts | 190° |
| 2026-05-07 08:13 | 52.52470 | 9.34655 | 26196 ft | 455 kts | 191° |
| 2026-05-07 08:13 | 52.49382 | 9.33796 | 26423 ft | 457 kts | 190° |
| 2026-05-07 08:13 | 52.46242 | 9.32929 | 26697 ft | 458 kts | 190° |
| 2026-05-07 08:13 | 52.43103 | 9.32086 | 27059 ft | 456 kts | 190° |
| 2026-05-07 08:14 | 52.39971 | 9.31267 | 27439 ft | 455 kts | 189° |
| 2026-05-07 08:14 | 52.36843 | 9.30461 | 27751 ft | 455 kts | 189° |
| 2026-05-07 08:14 | 52.33717 | 9.29658 | 28062 ft | 455 kts | 189° |
| 2026-05-07 08:14 | 52.30586 | 9.28854 | 28423 ft | 454 kts | 189° |
| 2026-05-07 08:15 | 52.27469 | 9.28049 | 28800 ft | 453 kts | 189° |
| 2026-05-07 08:15 | 52.24360 | 9.27238 | 29152 ft | 452 kts | 189° |
| 2026-05-07 08:15 | 52.21291 | 9.26475 | 29497 ft | 452 kts | 188° |
| 2026-05-07 08:15 | 52.18174 | 9.25830 | 29860 ft | 451 kts | 187° |
| 2026-05-07 08:16 | 52.15056 | 9.25278 | 30219 ft | 450 kts | 186° |
| 2026-05-07 08:16 | 52.11944 | 9.24777 | 30540 ft | 449 kts | 186° |
| 2026-05-07 08:16 | 52.08839 | 9.24290 | 30834 ft | 448 kts | 186° |
| 2026-05-07 08:16 | 52.05738 | 9.23780 | 31117 ft | 448 kts | 186° |
| 2026-05-07 08:17 | 52.02651 | 9.23169 | 31425 ft | 446 kts | 188° |
| 2026-05-07 08:17 | 51.99585 | 9.22410 | 31747 ft | 445 kts | 189° |
| 2026-05-07 08:17 | 51.96575 | 9.21577 | 32030 ft | 444 kts | 190° |
| 2026-05-07 08:17 | 51.93529 | 9.20701 | 32289 ft | 445 kts | 190° |
| 2026-05-07 08:18 | 51.90487 | 9.19834 | 32595 ft | 444 kts | 190° |
| 2026-05-07 08:18 | 51.87446 | 9.19006 | 32923 ft | 442 kts | 189° |
| 2026-05-07 08:18 | 51.84406 | 9.18269 | 33201 ft | 442 kts | 188° |
| 2026-05-07 08:18 | 51.81356 | 9.17607 | 33455 ft | 443 kts | 188° |
| 2026-05-07 08:19 | 51.78301 | 9.16990 | 33750 ft | 442 kts | 187° |
| 2026-05-07 08:19 | 51.75249 | 9.16380 | 33951 ft | 441 kts | 188° |
| 2026-05-07 08:19 | 51.72194 | 9.15752 | 33985 ft | 444 kts | 188° |
| 2026-05-07 08:20 | 51.66089 | 9.14452 | 33986 ft | 446 kts | 188° |
| 2026-05-07 08:20 | 51.59936 | 9.13108 | 33987 ft | 446 kts | 188° |
| 2026-05-07 08:21 | 51.53776 | 9.11770 | 33980 ft | 447 kts | 188° |
| 2026-05-07 08:21 | 51.47627 | 9.10293 | 33982 ft | 445 kts | 192° |
| 2026-05-07 08:22 | 51.41564 | 9.08239 | 33956 ft | 446 kts | 193° |
| 2026-05-07 08:22 | 51.35561 | 9.06014 | 33967 ft | 446 kts | 193° |
| 2026-05-07 08:23 | 51.29484 | 9.03970 | 33968 ft | 447 kts | 190° |
| 2026-05-07 08:23 | 51.23316 | 9.02678 | 33974 ft | 447 kts | 187° |
| 2026-05-07 08:24 | 51.17115 | 9.01664 | 33976 ft | 448 kts | 187° |
| 2026-05-07 08:24 | 51.10917 | 9.00532 | 33979 ft | 449 kts | 188° |
| 2026-05-07 08:25 | 51.04764 | 8.99296 | 33972 ft | 449 kts | 188° |
| 2026-05-07 08:25 | 50.98566 | 8.98038 | 33978 ft | 449 kts | 188° |
| 2026-05-07 08:26 | 50.89252 | 8.96189 | 33972 ft | 450 kts | 187° |
| 2026-05-07 08:26 | 50.83034 | 8.94976 | 33976 ft | 450 kts | 188° |
| 2026-05-07 08:27 | 50.76856 | 8.93766 | 33981 ft | 451 kts | 187° |
| 2026-05-07 08:27 | 50.70628 | 8.92555 | 33987 ft | 451 kts | 188° |
| 2026-05-07 08:28 | 50.64405 | 8.91338 | 33986 ft | 451 kts | 188° |
| 2026-05-07 08:28 | 50.58176 | 8.90119 | 33990 ft | 451 kts | 188° |
| 2026-05-07 08:29 | 50.51944 | 8.88914 | 33994 ft | 451 kts | 188° |
| 2026-05-07 08:29 | 50.45754 | 8.87719 | 33994 ft | 451 kts | 188° |
| 2026-05-07 08:30 | 50.39518 | 8.86509 | 33995 ft | 451 kts | 188° |
| 2026-05-07 08:30 | 50.33282 | 8.85306 | 34000 ft | 452 kts | 188° |
| 2026-05-07 08:31 | 50.27041 | 8.84113 | 34003 ft | 452 kts | 188° |
| 2026-05-07 08:31 | 50.20856 | 8.82929 | 34007 ft | 451 kts | 188° |
| 2026-05-07 08:32 | 50.14620 | 8.81723 | 34012 ft | 451 kts | 188° |
| 2026-05-07 08:32 | 50.08386 | 8.80540 | 34013 ft | 451 kts | 188° |
| 2026-05-07 08:33 | 50.02530 | 8.79415 | 34003 ft | 452 kts | 190° |
| 2026-05-07 08:33 | 50.00147 | 8.79217 | 33984 ft | 452 kts | 178° |
| 2026-05-07 08:33 | 49.99076 | 8.79308 | 33994 ft | 452 kts | 182° |
| 2026-05-07 08:34 | 49.97514 | 8.79564 | 34683 ft | 426 kts | 176° |
| 2026-05-07 08:34 | 49.94588 | 8.80098 | 35017 ft | 425 kts | 180° |
| 2026-05-07 08:34 | 49.91647 | 8.80490 | 34824 ft | 421 kts | 181° |
| 2026-05-07 08:34 | 49.88729 | 8.80735 | 34658 ft | 421 kts | 183° |
| 2026-05-07 08:35 | 49.85797 | 8.80832 | 34523 ft | 421 kts | 185° |
| 2026-05-07 08:35 | 49.82867 | 8.80783 | 34415 ft | 421 kts | 187° |
| 2026-05-07 08:35 | 49.77020 | 8.80247 | 34275 ft | 421 kts | 191° |
| 2026-05-07 08:36 | 49.74142 | 8.79774 | 34166 ft | 422 kts | 192° |
| 2026-05-07 08:36 | 49.71233 | 8.79184 | 33944 ft | 421 kts | 193° |
| 2026-05-07 08:36 | 49.68341 | 8.78476 | 33812 ft | 421 kts | 195° |
| 2026-05-07 08:36 | 49.65467 | 8.77628 | 33725 ft | 422 kts | 197° |
| 2026-05-07 08:37 | 49.59660 | 8.75651 | 33900 ft | 430 kts | 198° |
| 2026-05-07 08:37 | 49.56740 | 8.74608 | 34072 ft | 431 kts | 198° |
| 2026-05-07 08:37 | 49.53865 | 8.73514 | 34249 ft | 432 kts | 199° |
| 2026-05-07 08:38 | 49.47999 | 8.71070 | 34141 ft | 444 kts | 201° |
| 2026-05-07 08:38 | 49.41984 | 8.68479 | 34193 ft | 452 kts | 199° |
| 2026-05-07 08:39 | 49.38930 | 8.67276 | 34296 ft | 453 kts | 198° |
| 2026-05-07 08:39 | 49.35857 | 8.66144 | 34427 ft | 454 kts | 198° |
| 2026-05-07 08:39 | 49.32775 | 8.65089 | 34589 ft | 454 kts | 197° |
| 2026-05-07 08:39 | 49.29681 | 8.64108 | 34764 ft | 453 kts | 196° |
| 2026-05-07 08:40 | 49.26589 | 8.63206 | 34969 ft | 452 kts | 195° |
| 2026-05-07 08:40 | 49.23491 | 8.62313 | 34993 ft | 454 kts | 196° |
| 2026-05-07 08:40 | 49.20403 | 8.61293 | 34879 ft | 454 kts | 198° |
| 2026-05-07 08:40 | 49.17378 | 8.60175 | 34720 ft | 454 kts | 199° |
| 2026-05-07 08:41 | 49.14320 | 8.58967 | 34474 ft | 454 kts | 200° |
| 2026-05-07 08:41 | 49.11490 | 8.56926 | 34097 ft | 451 kts | 217° |
| 2026-05-07 08:41 | 49.08896 | 8.54294 | 34278 ft | 447 kts | 219° |
| 2026-05-07 08:41 | 49.06308 | 8.51633 | 34239 ft | 450 kts | 218° |
| 2026-05-07 08:42 | 49.01008 | 8.46501 | 34094 ft | 452 kts | 216° |
| 2026-05-07 08:42 | 48.95608 | 8.41697 | 34080 ft | 453 kts | 214° |
| 2026-05-07 08:43 | 48.90049 | 8.37168 | 34189 ft | 453 kts | 212° |
| 2026-05-07 08:43 | 48.84191 | 8.33548 | 34432 ft | 456 kts | 201° |
| 2026-05-07 08:44 | 48.81111 | 8.32379 | 34619 ft | 456 kts | 196° |
| 2026-05-07 08:44 | 48.77978 | 8.31659 | 34840 ft | 455 kts | 191° |
| 2026-05-07 08:44 | 48.74814 | 8.31276 | 34963 ft | 456 kts | 189° |
| 2026-05-07 08:44 | 48.71684 | 8.30959 | 34943 ft | 457 kts | 189° |
| 2026-05-07 08:45 | 48.65364 | 8.30159 | 34840 ft | 456 kts | 192° |
| 2026-05-07 08:45 | 48.59053 | 8.29215 | 34804 ft | 456 kts | 191° |
| 2026-05-07 08:46 | 48.52747 | 8.28159 | 34656 ft | 456 kts | 191° |
| 2026-05-07 08:46 | 48.46458 | 8.27077 | 34566 ft | 452 kts | 193° |
| 2026-05-07 08:47 | 48.40222 | 8.25906 | 34471 ft | 456 kts | 192° |
| 2026-05-07 08:47 | 48.33918 | 8.24807 | 34377 ft | 456 kts | 191° |
| 2026-05-07 08:48 | 48.27614 | 8.23757 | 34275 ft | 456 kts | 192° |
| 2026-05-07 08:48 | 48.21314 | 8.22595 | 33986 ft | 456 kts | 192° |
| 2026-05-07 08:49 | 48.15015 | 8.21449 | 34051 ft | 456 kts | 192° |
| 2026-05-07 08:49 | 48.08754 | 8.20332 | 34016 ft | 456 kts | 192° |
| 2026-05-07 08:50 | 48.02530 | 8.18747 | 34066 ft | 453 kts | 199° |
| 2026-05-07 08:50 | 47.96573 | 8.15824 | 34121 ft | 449 kts | 208° |
| 2026-05-07 08:51 | 47.93744 | 8.13849 | 34290 ft | 448 kts | 212° |
| 2026-05-07 08:51 | 47.91025 | 8.11608 | 34522 ft | 445 kts | 215° |
| 2026-05-07 08:51 | 47.88376 | 8.09250 | 34784 ft | 442 kts | 217° |
| 2026-05-07 08:51 | 47.85820 | 8.06816 | 34994 ft | 442 kts | 219° |
| 2026-05-07 08:52 | 47.83278 | 8.04248 | 35133 ft | 442 kts | 220° |
| 2026-05-07 08:52 | 47.80770 | 8.01587 | 35225 ft | 444 kts | 221° |
| 2026-05-07 08:52 | 47.75824 | 7.96010 | 35077 ft | 447 kts | 223° |
| 2026-05-07 08:53 | 47.70995 | 7.90177 | 34933 ft | 447 kts | 225° |
| 2026-05-07 08:53 | 47.66286 | 7.84157 | 34963 ft | 447 kts | 226° |
| 2026-05-07 08:54 | 47.61397 | 7.78405 | 35114 ft | 450 kts | 220° |
| 2026-05-07 08:54 | 47.56149 | 7.73454 | 35149 ft | 451 kts | 216° |
| 2026-05-07 08:55 | 47.50743 | 7.68763 | 35019 ft | 449 kts | 216° |
| 2026-05-07 08:55 | 47.45489 | 7.63965 | 35059 ft | 449 kts | 218° |
| 2026-05-07 08:56 | 47.40220 | 7.58844 | 35131 ft | 448 kts | 219° |
| 2026-05-07 08:56 | 47.35082 | 7.53725 | 34946 ft | 449 kts | 218° |
| 2026-05-07 08:57 | 47.29748 | 7.48921 | 34916 ft | 450 kts | 216° |
| 2026-05-07 08:57 | 47.24385 | 7.44179 | 35059 ft | 449 kts | 217° |
| 2026-05-07 08:58 | 47.19101 | 7.39280 | 35046 ft | 449 kts | 219° |
| 2026-05-07 08:58 | 47.14479 | 7.33397 | 35037 ft | 440 kts | 237° |
| 2026-05-07 08:59 | 47.10819 | 7.26168 | 35041 ft | 443 kts | 238° |
| 2026-05-07 08:59 | 47.06988 | 7.19052 | 35025 ft | 445 kts | 236° |
| 2026-05-07 09:00 | 47.03083 | 7.12019 | 34989 ft | 444 kts | 236° |
| 2026-05-07 09:00 | 46.99231 | 7.05024 | 35039 ft | 444 kts | 236° |
| 2026-05-07 09:01 | 46.95369 | 6.97974 | 35039 ft | 443 kts | 237° |
| 2026-05-07 09:01 | 46.91489 | 6.90974 | 35045 ft | 444 kts | 233° |
| 2026-05-07 09:02 | 46.89205 | 6.87911 | 35028 ft | 450 kts | 221° |
| 2026-05-07 09:02 | 46.86609 | 6.85339 | 35092 ft | 449 kts | 220° |
| 2026-05-07 09:02 | 46.81673 | 6.79874 | 35060 ft | 443 kts | 227° |
| 2026-05-07 09:03 | 46.77125 | 6.73885 | 34972 ft | 444 kts | 228° |
| 2026-05-07 09:03 | 46.72476 | 6.67962 | 35018 ft | 444 kts | 226° |
| 2026-05-07 09:04 | 46.67667 | 6.62296 | 35019 ft | 444 kts | 224° |
| 2026-05-07 09:04 | 46.62814 | 6.56715 | 35014 ft | 444 kts | 224° |
| 2026-05-07 09:05 | 46.57993 | 6.51093 | 35004 ft | 444 kts | 225° |
| 2026-05-07 09:05 | 46.53243 | 6.45465 | 35110 ft | 444 kts | 225° |
| 2026-05-07 09:06 | 46.48461 | 6.39767 | 35024 ft | 445 kts | 225° |
| 2026-05-07 09:06 | 46.43611 | 6.34174 | 34971 ft | 446 kts | 224° |
| 2026-05-07 09:07 | 46.38741 | 6.28625 | 35035 ft | 444 kts | 225° |
| 2026-05-07 09:07 | 46.33988 | 6.23021 | 35023 ft | 443 kts | 225° |
| 2026-05-07 09:08 | 46.29198 | 6.17426 | 35021 ft | 443 kts | 225° |
| 2026-05-07 09:08 | 46.26638 | 6.14902 | 34990 ft | 450 kts | 214° |
| 2026-05-07 09:08 | 46.23736 | 6.13143 | 35030 ft | 456 kts | 203° |
| 2026-05-07 09:09 | 46.17462 | 6.11522 | 35059 ft | 457 kts | 195° |
| 2026-05-07 09:09 | 46.11249 | 6.10085 | 35039 ft | 454 kts | 197° |
| 2026-05-07 09:10 | 46.05025 | 6.08495 | 35015 ft | 454 kts | 197° |
| 2026-05-07 09:10 | 45.98783 | 6.07042 | 35021 ft | 455 kts | 196° |
| 2026-05-07 09:11 | 45.92524 | 6.05709 | 35005 ft | 454 kts | 196° |
| 2026-05-07 09:11 | 45.86267 | 6.04389 | 35016 ft | 454 kts | 196° |
| 2026-05-07 09:12 | 45.80066 | 6.03005 | 35026 ft | 454 kts | 197° |
| 2026-05-07 09:12 | 45.73831 | 6.01581 | 35036 ft | 454 kts | 197° |
| 2026-05-07 09:13 | 45.67579 | 6.00220 | 35001 ft | 454 kts | 197° |
| 2026-05-07 09:13 | 45.61326 | 5.98883 | 35006 ft | 454 kts | 197° |
| 2026-05-07 09:14 | 45.55130 | 5.97531 | 35028 ft | 454 kts | 197° |
| 2026-05-07 09:14 | 45.48896 | 5.96152 | 34980 ft | 453 kts | 197° |
| 2026-05-07 09:15 | 45.42707 | 5.94561 | 35014 ft | 451 kts | 200° |
| 2026-05-07 09:15 | 45.37642 | 5.92894 | 35008 ft | 449 kts | 202° |
| 2026-05-07 09:16 | 45.31571 | 5.90808 | 34999 ft | 449 kts | 202° |
| 2026-05-07 09:16 | 45.24477 | 5.88576 | 34968 ft | 450 kts | 200° |
| 2026-05-07 09:17 | 45.18362 | 5.86738 | 35006 ft | 449 kts | 201° |
| 2026-05-07 09:17 | 45.13296 | 5.85185 | 34989 ft | 448 kts | 201° |
| 2026-05-07 09:18 | 45.07206 | 5.83297 | 34979 ft | 448 kts | 201° |
| 2026-05-07 09:18 | 45.00154 | 5.81075 | 35054 ft | 446 kts | 201° |
| 2026-05-07 09:19 | 44.95116 | 5.79522 | 35038 ft | 446 kts | 201° |
| 2026-05-07 09:19 | 44.89062 | 5.77686 | 34976 ft | 445 kts | 201° |
| 2026-05-07 09:20 | 44.83006 | 5.75859 | 34966 ft | 444 kts | 201° |
| 2026-05-07 09:20 | 44.76976 | 5.74015 | 34983 ft | 443 kts | 201° |
| 2026-05-07 09:21 | 44.70995 | 5.72162 | 34963 ft | 444 kts | 201° |
| 2026-05-07 09:21 | 44.64963 | 5.70304 | 34942 ft | 444 kts | 201° |
| 2026-05-07 09:22 | 44.58933 | 5.68452 | 34997 ft | 444 kts | 201° |
| 2026-05-07 09:22 | 44.52900 | 5.66614 | 35174 ft | 444 kts | 201° |
| 2026-05-07 09:23 | 44.46858 | 5.64786 | 34984 ft | 444 kts | 201° |
| 2026-05-07 09:23 | 44.40865 | 5.63016 | 34961 ft | 443 kts | 201° |
| 2026-05-07 09:24 | 44.34965 | 5.60807 | 35042 ft | 433 kts | 210° |
| 2026-05-07 09:24 | 44.29396 | 5.57561 | 34959 ft | 435 kts | 212° |
| 2026-05-07 09:25 | 44.23828 | 5.54283 | 35006 ft | 434 kts | 211° |
| 2026-05-07 09:25 | 44.18228 | 5.51256 | 34989 ft | 435 kts | 210° |
| 2026-05-07 09:26 | 44.12538 | 5.48369 | 35165 ft | 435 kts | 208° |
| 2026-05-07 09:26 | 44.09680 | 5.46983 | 35289 ft | 436 kts | 208° |
| 2026-05-07 09:26 | 44.06817 | 5.45601 | 35136 ft | 434 kts | 209° |
| 2026-05-07 09:27 | 44.04011 | 5.44115 | 34960 ft | 430 kts | 211° |
| 2026-05-07 09:27 | 44.01269 | 5.42486 | 34815 ft | 428 kts | 213° |
| 2026-05-07 09:27 | 43.96083 | 5.38924 | 34652 ft | 404 kts | 213° |
| 2026-05-07 09:28 | 43.93603 | 5.37162 | 34965 ft | 398 kts | 217° |
| 2026-05-07 09:28 | 43.91164 | 5.35370 | 35337 ft | 394 kts | 218° |
| 2026-05-07 09:28 | 43.88782 | 5.33551 | 35649 ft | 389 kts | 219° |
| 2026-05-07 09:28 | 43.86550 | 5.31777 | 35959 ft | 385 kts | 220° |
| 2026-05-07 09:29 | 43.84301 | 5.29692 | 35531 ft | 396 kts | 227° |
| 2026-05-07 09:29 | 43.82242 | 5.27045 | 34890 ft | 413 kts | 233° |
| 2026-05-07 09:29 | 43.80285 | 5.24014 | 34216 ft | 432 kts | 237° |
| 2026-05-07 09:29 | 43.78403 | 5.20766 | 34383 ft | 424 kts | 238° |
| 2026-05-07 09:30 | 43.76642 | 5.17630 | 34931 ft | 414 kts | 239° |
| 2026-05-07 09:30 | 43.74956 | 5.14523 | 35420 ft | 406 kts | 240° |
| 2026-05-07 09:30 | 43.73280 | 5.11357 | 35454 ft | 409 kts | 240° |
| 2026-05-07 09:31 | 43.69931 | 5.04969 | 35545 ft | 412 kts | 234° |
| 2026-05-07 09:31 | 43.67881 | 5.02193 | 35540 ft | 418 kts | 218° |
| 2026-05-07 09:31 | 43.65305 | 5.00269 | 35539 ft | 424 kts | 210° |
| 2026-05-07 09:31 | 43.62618 | 4.98599 | 35149 ft | 423 kts | 209° |
| 2026-05-07 09:32 | 43.59964 | 4.96989 | 34965 ft | 424 kts | 208° |
| 2026-05-07 09:32 | 43.54218 | 4.94708 | 35006 ft | 432 kts | 200° |
| 2026-05-07 09:33 | 43.48395 | 4.92656 | 35003 ft | 432 kts | 200° |
| 2026-05-07 09:33 | 43.42579 | 4.90602 | 35002 ft | 431 kts | 200° |
| 2026-05-07 09:34 | 43.36802 | 4.88570 | 35003 ft | 431 kts | 200° |
| 2026-05-07 09:34 | 43.30983 | 4.86535 | 34987 ft | 431 kts | 199° |
| 2026-05-07 09:35 | 43.25173 | 4.84508 | 35002 ft | 431 kts | 199° |
| 2026-05-07 09:35 | 43.19367 | 4.82488 | 35016 ft | 430 kts | 199° |
| 2026-05-07 09:36 | 43.13566 | 4.80461 | 35023 ft | 430 kts | 199° |
| 2026-05-07 09:36 | 43.07854 | 4.78315 | 35011 ft | 425 kts | 206° |
| 2026-05-07 09:37 | 43.02830 | 4.74325 | 35024 ft | 415 kts | 223° |
| 2026-05-07 09:37 | 42.98525 | 4.69104 | 35024 ft | 414 kts | 224° |
| 2026-05-07 09:38 | 42.94212 | 4.63892 | 35019 ft | 414 kts | 224° |
| 2026-05-07 09:38 | 42.89922 | 4.58732 | 35011 ft | 414 kts | 224° |
| 2026-05-07 09:39 | 42.85605 | 4.53544 | 35021 ft | 414 kts | 224° |
| 2026-05-07 09:39 | 42.81282 | 4.48355 | 35029 ft | 414 kts | 224° |
| 2026-05-07 09:40 | 42.76966 | 4.43170 | 35026 ft | 414 kts | 224° |
| 2026-05-07 09:40 | 42.72674 | 4.38021 | 35028 ft | 414 kts | 224° |
| 2026-05-07 09:41 | 42.68346 | 4.32849 | 35029 ft | 414 kts | 223° |
| 2026-05-07 09:41 | 42.64010 | 4.27697 | 35032 ft | 414 kts | 223° |
| 2026-05-07 09:42 | 42.59671 | 4.22546 | 35028 ft | 414 kts | 223° |
| 2026-05-07 09:42 | 42.55362 | 4.17433 | 35044 ft | 414 kts | 223° |
| 2026-05-07 09:43 | 42.51023 | 4.12293 | 35023 ft | 414 kts | 223° |
| 2026-05-07 09:43 | 42.46681 | 4.07166 | 35030 ft | 414 kts | 223° |
| 2026-05-07 09:44 | 42.42341 | 4.02054 | 35032 ft | 414 kts | 223° |
| 2026-05-07 09:44 | 42.38003 | 3.96938 | 35036 ft | 413 kts | 223° |
| 2026-05-07 09:45 | 42.33697 | 3.91863 | 35012 ft | 413 kts | 223° |
| 2026-05-07 09:45 | 42.29363 | 3.86765 | 35021 ft | 413 kts | 223° |
| 2026-05-07 09:46 | 42.25020 | 3.81689 | 35027 ft | 413 kts | 222° |
| 2026-05-07 09:46 | 42.20675 | 3.76610 | 35031 ft | 413 kts | 222° |
| 2026-05-07 09:47 | 42.16359 | 3.71560 | 35014 ft | 414 kts | 222° |
| 2026-05-07 09:47 | 42.11997 | 3.66486 | 35020 ft | 414 kts | 222° |
| 2026-05-07 09:48 | 42.08127 | 3.60823 | 34322 ft | 413 kts | 239° |
| 2026-05-07 09:48 | 42.06858 | 3.57348 | 33423 ft | 416 kts | 245° |
| 2026-05-07 09:48 | 42.05707 | 3.53764 | 32611 ft | 416 kts | 245° |
| 2026-05-07 09:48 | 42.04554 | 3.50213 | 31994 ft | 412 kts | 245° |
| 2026-05-07 09:49 | 42.03415 | 3.46750 | 31402 ft | 408 kts | 245° |
| 2026-05-07 09:49 | 42.02260 | 3.43279 | 30803 ft | 405 kts | 245° |
| 2026-05-07 09:49 | 42.01112 | 3.39840 | 30219 ft | 401 kts | 245° |
| 2026-05-07 09:49 | 41.99974 | 3.36436 | 29550 ft | 398 kts | 245° |
| 2026-05-07 09:50 | 41.98844 | 3.33053 | 28890 ft | 395 kts | 245° |
| 2026-05-07 09:50 | 41.97724 | 3.29709 | 28250 ft | 391 kts | 245° |
| 2026-05-07 09:50 | 41.96609 | 3.26388 | 27624 ft | 389 kts | 245° |
| 2026-05-07 09:50 | 41.95514 | 3.23134 | 27021 ft | 386 kts | 245° |
| 2026-05-07 09:51 | 41.94574 | 3.19778 | 26412 ft | 384 kts | 254° |
| 2026-05-07 09:51 | 41.93967 | 3.16299 | 25814 ft | 381 kts | 256° |
| 2026-05-07 09:51 | 41.93372 | 3.12850 | 25257 ft | 378 kts | 255° |
| 2026-05-07 09:51 | 41.92775 | 3.09421 | 24681 ft | 376 kts | 255° |
| 2026-05-07 09:52 | 41.92179 | 3.06010 | 24095 ft | 374 kts | 255° |
| 2026-05-07 09:52 | 41.91584 | 3.02616 | 23529 ft | 373 kts | 255° |
| 2026-05-07 09:52 | 41.90991 | 2.99230 | 22873 ft | 372 kts | 255° |
| 2026-05-07 09:52 | 41.90400 | 2.95858 | 22282 ft | 370 kts | 255° |
| 2026-05-07 09:53 | 41.89811 | 2.92510 | 21717 ft | 368 kts | 255° |
| 2026-05-07 09:53 | 41.89233 | 2.89221 | 21179 ft | 366 kts | 255° |
| 2026-05-07 09:53 | 41.88645 | 2.85910 | 20646 ft | 364 kts | 255° |
| 2026-05-07 09:53 | 41.88060 | 2.82617 | 20130 ft | 362 kts | 255° |
| 2026-05-07 09:54 | 41.87480 | 2.79342 | 19633 ft | 360 kts | 255° |
| 2026-05-07 09:54 | 41.86893 | 2.76034 | 18737 ft | 369 kts | 255° |
| 2026-05-07 09:54 | 41.86295 | 2.72665 | 18064 ft | 372 kts | 256° |
| 2026-05-07 09:54 | 41.85696 | 2.69296 | 17449 ft | 371 kts | 256° |
| 2026-05-07 09:55 | 41.85101 | 2.65942 | 16904 ft | 369 kts | 256° |
| 2026-05-07 09:55 | 41.84517 | 2.62649 | 16371 ft | 366 kts | 255° |
| 2026-05-07 09:55 | 41.83925 | 2.59335 | 15860 ft | 364 kts | 255° |
| 2026-05-07 09:55 | 41.83334 | 2.56043 | 15366 ft | 362 kts | 256° |
| 2026-05-07 09:56 | 41.82744 | 2.52768 | 14880 ft | 360 kts | 256° |
| 2026-05-07 09:56 | 41.82157 | 2.49514 | 14418 ft | 358 kts | 256° |
| 2026-05-07 09:56 | 41.81572 | 2.46272 | 13924 ft | 356 kts | 256° |
| 2026-05-07 09:56 | 41.80991 | 2.43058 | 13247 ft | 357 kts | 256° |
| 2026-05-07 09:57 | 41.80408 | 2.39824 | 12843 ft | 351 kts | 256° |
| 2026-05-07 09:57 | 41.79849 | 2.36713 | 12708 ft | 337 kts | 256° |
| 2026-05-07 09:57 | 41.79313 | 2.33754 | 12577 ft | 325 kts | 256° |
| 2026-05-07 09:57 | 41.78787 | 2.30863 | 12445 ft | 314 kts | 256° |
| 2026-05-07 09:58 | 41.78274 | 2.28069 | 12314 ft | 304 kts | 256° |
| 2026-05-07 09:58 | 41.77726 | 2.25390 | 12183 ft | 294 kts | 249° |
| 2026-05-07 09:58 | 41.76798 | 2.22985 | 11935 ft | 289 kts | 235° |
| 2026-05-07 09:58 | 41.75470 | 2.20981 | 11605 ft | 288 kts | 221° |
| 2026-05-07 09:59 | 41.73827 | 2.19475 | 11278 ft | 287 kts | 208° |
| 2026-05-07 09:59 | 41.71986 | 2.18541 | 10910 ft | 288 kts | 197° |
| 2026-05-07 09:59 | 41.70057 | 2.17820 | 10535 ft | 288 kts | 197° |
| 2026-05-07 09:59 | 41.68128 | 2.17092 | 10177 ft | 287 kts | 198° |
| 2026-05-07 10:00 | 41.66209 | 2.16365 | 9827 ft | 287 kts | 198° |
| 2026-05-07 10:00 | 41.64293 | 2.15636 | 9437 ft | 285 kts | 198° |
| 2026-05-07 10:00 | 41.62389 | 2.14912 | 9059 ft | 284 kts | 197° |
| 2026-05-07 10:00 | 41.60490 | 2.14193 | 8662 ft | 283 kts | 198° |
| 2026-05-07 10:01 | 41.58600 | 2.13481 | 8283 ft | 282 kts | 197° |
| 2026-05-07 10:01 | 41.56718 | 2.12770 | 7916 ft | 280 kts | 198° |
| 2026-05-07 10:01 | 41.54850 | 2.12063 | 7556 ft | 279 kts | 198° |
| 2026-05-07 10:01 | 41.53097 | 2.11099 | 7213 ft | 275 kts | 213° |
| 2026-05-07 10:02 | 41.51591 | 2.09575 | 6868 ft | 271 kts | 227° |
| 2026-05-07 10:02 | 41.50433 | 2.07619 | 6471 ft | 268 kts | 240° |
| 2026-05-07 10:02 | 41.49472 | 2.05497 | 6037 ft | 268 kts | 240° |
| 2026-05-07 10:02 | 41.48503 | 2.03374 | 5617 ft | 268 kts | 240° |
| 2026-05-07 10:03 | 41.47538 | 2.01264 | 5218 ft | 266 kts | 239° |
| 2026-05-07 10:03 | 41.46574 | 1.99160 | 4828 ft | 265 kts | 239° |
| 2026-05-07 10:03 | 41.45632 | 1.97105 | 4575 ft | 258 kts | 239° |
| 2026-05-07 10:03 | 41.44740 | 1.95168 | 4791 ft | 234 kts | 239° |
| 2026-05-07 10:04 | 41.43898 | 1.93338 | 4950 ft | 231 kts | 239° |
| 2026-05-07 10:04 | 41.43057 | 1.91509 | 5000 ft | 231 kts | 239° |
| 2026-05-07 10:04 | 41.42220 | 1.89688 | 5006 ft | 230 kts | 239° |
| 2026-05-07 10:04 | 41.41385 | 1.87877 | 5011 ft | 230 kts | 239° |
| 2026-05-07 10:05 | 41.40550 | 1.86067 | 5007 ft | 229 kts | 239° |
| 2026-05-07 10:05 | 41.39718 | 1.84258 | 5003 ft | 229 kts | 239° |
| 2026-05-07 10:05 | 41.38892 | 1.82469 | 5004 ft | 229 kts | 239° |
| 2026-05-07 10:05 | 41.38056 | 1.80664 | 5005 ft | 229 kts | 238° |
| 2026-05-07 10:06 | 41.37220 | 1.78852 | 5005 ft | 230 kts | 239° |
| 2026-05-07 10:06 | 41.36381 | 1.77037 | 5003 ft | 230 kts | 239° |
| 2026-05-07 10:06 | 41.35540 | 1.75231 | 5003 ft | 230 kts | 236° |
| 2026-05-07 10:06 | 41.34404 | 1.73765 | 5004 ft | 230 kts | 210° |
| 2026-05-07 10:07 | 41.32882 | 1.73154 | 5007 ft | 232 kts | 182° |
| 2026-05-07 10:07 | 41.31302 | 1.73503 | 4743 ft | 232 kts | 158° |
| 2026-05-07 10:07 | 41.29831 | 1.74391 | 4401 ft | 232 kts | 152° |
| 2026-05-07 10:07 | 41.28392 | 1.75336 | 4107 ft | 230 kts | 152° |
| 2026-05-07 10:08 | 41.26985 | 1.76261 | 3847 ft | 228 kts | 152° |
| 2026-05-07 10:08 | 41.25574 | 1.77194 | 3573 ft | 226 kts | 152° |
| 2026-05-07 10:08 | 41.24171 | 1.78106 | 3294 ft | 223 kts | 149° |
| 2026-05-07 10:08 | 41.22953 | 1.79315 | 3060 ft | 216 kts | 129° |
| 2026-05-07 10:09 | 41.22140 | 1.80948 | 3001 ft | 211 kts | 111° |
| 2026-05-07 10:09 | 41.21769 | 1.82844 | 3005 ft | 215 kts | 94° |
| 2026-05-07 10:09 | 41.21874 | 1.84811 | 3005 ft | 216 kts | 76° |
| 2026-05-07 10:09 | 41.22415 | 1.86667 | 3004 ft | 215 kts | 66° |
| 2026-05-07 10:10 | 41.23024 | 1.88419 | 2984 ft | 204 kts | 66° |
| 2026-05-07 10:10 | 41.23603 | 1.90094 | 2810 ft | 200 kts | 66° |
| 2026-05-07 10:10 | 41.24169 | 1.91736 | 2566 ft | 191 kts | 67° |
| 2026-05-07 10:10 | 41.24715 | 1.93318 | 2309 ft | 185 kts | 67° |
| 2026-05-07 10:11 | 41.25240 | 1.94842 | 2065 ft | 178 kts | 67° |
| 2026-05-07 10:11 | 41.25748 | 1.96316 | 1831 ft | 172 kts | 67° |
| 2026-05-07 10:11 | 41.26225 | 1.97704 | 1637 ft | 155 kts | 67° |
| 2026-05-07 10:11 | 41.26653 | 1.98947 | 1412 ft | 142 kts | 67° |
| 2026-05-07 10:12 | 41.27052 | 2.00108 | 1223 ft | 136 kts | 69° |
| 2026-05-07 10:12 | 41.27435 | 2.01224 | 1046 ft | 135 kts | 68° |
| 2026-05-07 10:12 | 41.27822 | 2.02351 | 855 ft | 134 kts | 67° |
| 2026-05-07 10:12 | 41.28207 | 2.03472 | 680 ft | 133 kts | 66° |
| 2026-05-07 10:13 | 41.28592 | 2.04583 | 487 ft | 132 kts | 67° |
| 2026-05-07 10:13 | 41.28979 | 2.05715 | 300 ft | 134 kts | 68° |
| 2026-05-07 10:13 | 41.29354 | 2.06821 | 119 ft | 129 kts | 67° |
| 2026-05-07 10:13 | 41.29711 | 2.07865 | 18 ft | 112 kts | 72° |
| 2026-05-07 10:14 | 41.29958 | 2.08604 | 26 ft | 50 kts | 66° |
| 2026-05-07 10:14 | 41.30063 | 2.08760 | 21 ft | 21 kts | 34° |
| 2026-05-07 10:14 | 41.30163 | 2.08840 | 19 ft | 9 kts | 25° |
| 2026-05-07 10:14 | 41.30224 | 2.08876 | 18 ft | 11 kts | 21° |
| 2026-05-07 10:15 | 41.30290 | 2.08859 | 18 ft | 11 kts | 289° |
| 2026-05-07 10:15 | 41.30273 | 2.08775 | 19 ft | 9 kts | 246° |
| 2026-05-07 10:15 | 41.30251 | 2.08707 | 21 ft | 7 kts | 245° |
| 2026-05-07 10:15 | 41.30231 | 2.08650 | 19 ft | 6 kts | 245° |
| 2026-05-07 10:16 | 41.30213 | 2.08600 | 19 ft | 6 kts | 245° |
| 2026-05-07 10:16 | 41.30193 | 2.08542 | 21 ft | 8 kts | 247° |
| 2026-05-07 10:16 | 41.30223 | 2.08477 | 18 ft | 12 kts | 335° |
| 2026-05-07 10:16 | 41.30291 | 2.08436 | 20 ft | 10 kts | 335° |
| 2026-05-07 10:17 | 41.30341 | 2.08406 | 20 ft | 7 kts | 335° |
| 2026-05-07 10:17 | 41.30375 | 2.08386 | 21 ft | 4 kts | 335° |
| 2026-05-07 10:17 | 41.30399 | 2.08365 | 21 ft | 4 kts | 308° |
| 2026-05-07 10:17 | 41.30406 | 2.08319 | 21 ft | 5 kts | 276° |
| 2026-05-07 10:18 | 41.30407 | 2.08306 | 21 ft | 0 kts | 276° |